Nautilus — OUYX2 — position and weather

sailwx.info

Track history (hours):
 
Tides and Currents Weather Stations Pressure Air Temp Water Temp Dewpoint Dewpoint Depression Visibility Wind Speed Wind Dir Waves Ship Positions

Nautilus

Last reported at 2016-Jul-01 14:32 UTC. Time now 2016-Jul-01 15:25 UTC.
Position N 54°09' E 012°08'.

Length 120 m; draft 5.1 m.

Type: Ship. MMSI: 219425000.

Date/timePositionNaut miles runAvg speedWind from/ knotsBaromVisibWave heightAir tempDewpointWater temp
2016-Jul-01 14:32N 54°09' E 012°08'0 0.0
2016-Jul-01 12:29N 54°09' E 012°08'0 0.0
2016-Jul-01 11:32N 54°09' E 012°08'0 0.0
2016-Jul-01 10:26N 54°09' E 012°08'0 0.0
2016-Jul-01 09:14N 54°09' E 012°08'0 0.0
2016-Jul-01 08:14N 54°09' E 012°08'0 0.0
2016-Jul-01 07:05N 54°09' E 012°08'0 0.0
2016-Jul-01 06:32N 54°09' E 012°08'0 0.0
2016-Jul-01 04:32N 54°09' E 012°08'0 0.0
2016-Jul-01 03:32N 54°09' E 012°08'0 0.0
2016-Jul-01 02:11N 54°09' E 012°08'0 0.0
2016-Jul-01 01:29N 54°09' E 012°08'1 1.3
2016-Jul-01 00:33N 54°10' E 012°06'1010.2
2016-Jun-30 23:33N 54°19' E 011°59'8 8.0
2016-Jun-30 22:34N 54°26' E 012°07'1312.3
2016-Jun-30 21:32N 54°37' E 012°17'5612.6
2016-Jun-30 17:06N 54°59' E 013°45'712.2
2016-Jun-30 16:33N 55°02' E 013°56'1212.2
2016-Jun-30 15:33N 55°04' E 014°17'1212.5
2016-Jun-30 14:33N 55°05' E 014°39'2 1.7
2016-Jun-30 13:31N 55°06' E 014°42'0 0.0
2016-Jun-30 12:31N 55°06' E 014°42'0 0.0
2016-Jun-30 11:31N 55°06' E 014°42'0 0.0
2016-Jun-30 10:31N 55°06' E 014°42'0 0.0
2016-Jun-30 09:31N 55°06' E 014°42'0 0.0
2016-Jun-30 08:31N 55°06' E 014°42'0 0.0
2016-Jun-30 07:31N 55°06' E 014°42'0 0.0
2016-Jun-30 06:33N 55°06' E 014°42'7 7.3
2016-Jun-30 05:33N 55°06' E 014°29'1312.5
2016-Jun-30 04:33N 55°09' E 014°08'1212.3
2016-Jun-30 03:33N 55°10' E 013°46'1412.4
2016-Jun-30 02:27N 55°11' E 013°22'1112.7
2016-Jun-30 01:33N 55°12' E 013°02'1312.9
2016-Jun-30 00:33N 55°17' E 012°42'1010.1
2016-Jun-29 23:33N 55°27' E 012°40'10 9.6
2016-Jun-29 22:33N 55°37' E 012°42'5 4.8
2016-Jun-29 21:31N 55°41' E 012°38'0 0.0
2016-Jun-29 20:31N 55°41' E 012°38'0 0.0
2016-Jun-29 19:32N 55°41' E 012°38'0 0.0
2016-Jun-29 18:31N 55°41' E 012°38'0 0.0
2016-Jun-29 17:32N 55°41' E 012°38'0 0.0
2016-Jun-29 16:31N 55°41' E 012°38'0 0.0
2016-Jun-29 15:31N 55°41' E 012°38'0 0.0
2016-Jun-29 14:32N 55°41' E 012°38'0 0.0
2016-Jun-29 13:32N 55°41' E 012°38'0 0.0
2016-Jun-29 12:31N 55°41' E 012°38'0 0.0
2016-Jun-29 11:32N 55°41' E 012°38'7 7.5
2016-Jun-29 10:33N 55°48' E 012°42'10 9.9
2016-Jun-29 09:33N 55°58' E 012°40'9 9.0
2016-Jun-29 08:34N 56°06' E 012°33'1110.6
2016-Jun-29 07:34N 56°12' E 012°17'1110.9
2016-Jun-29 06:33N 56°10' E 011°58'30 9.9
2016-Jun-29 03:32N 56°02' E 011°06'1211.9
2016-Jun-29 02:32N 55°52' E 010°53'  
2016-Jun-25 17:32N 55°40' E 010°59'0 0.0
2016-Jun-25 16:32N 55°40' E 010°59'0 0.0
2016-Jun-25 15:34N 55°40' E 010°59'14 0.8
2016-Jun-24 21:33N 55°54' E 010°55'1311.2
2016-Jun-24 20:22N 55°58' E 011°18'15 1.5
2016-Jun-24 10:20N 56°03' E 010°53'1013.0
2016-Jun-24 09:34N 56°04' E 010°35'1212.2
2016-Jun-24 08:33N 56°10' E 010°15'1 0.6
2016-Jun-24 07:31N 56°09' E 010°14'0 0.0
2016-Jun-24 04:31N 56°09' E 010°14'0 0.0
2016-Jun-24 03:31N 56°09' E 010°14'0 0.0
2016-Jun-24 02:25N 56°09' E 010°14'0 0.0
2016-Jun-24 01:28N 56°09' E 010°14'0 0.0
2016-Jun-24 00:31N 56°09' E 010°14'0 0.0
2016-Jun-23 23:33N 56°09' E 010°14'2 1.7
2016-Jun-23 22:34N 56°09' E 010°17'1211.8
2016-Jun-23 21:34N 56°04' E 010°36'10 9.6
2016-Jun-23 20:33N 56°12' E 010°47'1211.5
2016-Jun-23 19:32N 56°20' E 011°01'2311.5
2016-Jun-23 17:30N 56°36' E 011°32'1212.3
2016-Jun-23 16:34N 56°44' E 011°48'1111.0
2016-Jun-23 15:33N 56°55' E 011°46'1212.1
2016-Jun-23 14:34N 57°06' E 011°39'1212.2
2016-Jun-23 13:33N 57°18' E 011°31'1212.2
2016-Jun-23 12:33N 57°29' E 011°23'1212.3
2016-Jun-23 11:33N 57°41' E 011°16'1212.4
2016-Jun-23 10:33N 57°52' E 011°08'1212.1
2016-Jun-23 09:33N 58°04' E 010°59'1212.2
2016-Jun-23 08:34N 58°15' E 010°51'1212.0
2016-Jun-23 07:34N 58°26' E 010°43'2311.6
2016-Jun-23 05:33N 58°49' E 010°37'1211.9
2016-Jun-23 04:34N 59°01' E 010°35'1111.2
2016-Jun-23 03:33N 59°12' E 010°36'8 7.8
2016-Jun-23 02:33N 59°20' E 010°31'0 0.0
2016-Jun-23 01:32N 59°20' E 010°31'0 0.0
2016-Jun-23 00:32N 59°20' E 010°31'0 0.0
2016-Jun-22 23:32N 59°20' E 010°31'0 0.0
2016-Jun-22 22:32N 59°20' E 010°31'0 0.0
2016-Jun-22 21:32N 59°20' E 010°31'0 0.0
2016-Jun-22 20:32N 59°20' E 010°31'0 0.0
2016-Jun-22 19:32N 59°20' E 010°31'0 0.0
2016-Jun-22 18:32N 59°20' E 010°31'0 0.0
2016-Jun-22 17:33N 59°20' E 010°31'1 0.8
2016-Jun-22 16:33N 59°20' E 010°31'0 0.0
2016-Jun-22 15:33N 59°20' E 010°31'0 0.0
2016-Jun-22 14:33N 59°20' E 010°31'0 0.0
2016-Jun-22 13:33N 59°20' E 010°31'0 0.0
2016-Jun-22 12:33N 59°20' E 010°31'0 0.0
2016-Jun-22 11:33N 59°20' E 010°31'0 0.1
2016-Jun-22 10:33N 59°20' E 010°30'7 6.6
2016-Jun-22 09:33N 59°14' E 010°35'1211.7
2016-Jun-22 08:33N 59°02' E 010°34'1212.1
2016-Jun-22 07:33N 58°52' E 010°23'1313.0
2016-Jun-22 06:33N 58°42' E 010°06'1313.3
2016-Jun-22 05:33N 58°32' E 009°49'1313.1
2016-Jun-22 04:33N 58°22' E 009°33'1312.7
2016-Jun-22 03:33N 58°13' E 009°17'1412.6
2016-Jun-22 02:28N 58°03' E 008°59'1112.1
2016-Jun-22 01:33N 57°56' E 008°43'3812.2
2016-Jun-21 22:26N 57°42' E 007°37'1011.3
2016-Jun-21 21:33N 57°42' E 007°18'1212.1
2016-Jun-21 20:33N 57°43' E 006°55'1312.7
2016-Jun-21 19:31N 57°45' E 006°31'1212.8
2016-Jun-21 18:33N 57°53' E 006°13'1312.7
2016-Jun-21 17:33N 58°00' E 005°54'1312.7
2016-Jun-21 16:33N 58°09' E 005°37'1212.3
2016-Jun-21 15:33N 58°17' E 005°19'1010.4
2016-Jun-21 14:33N 58°27' E 005°15'  
Track history (hours):
 
Tides and Currents Weather Stations Pressure Air Temp Water Temp Dewpoint Dewpoint Depression Visibility Wind Speed Wind Dir Waves Ship Positions

Nautilus

Last reported at 2016-Jul-01 14:32 UTC. Time now 2016-Jul-01 15:25 UTC.
Position N 54°09' E 012°08'.

Length 120 m; draft 5.1 m.

Type: Ship. MMSI: 219425000.

Date/timePositionNaut miles runAvg speedWind from/ knotsBaromVisibWave heightAir tempDewpointWater temp
2016-Jul-01 14:32N 54°09' E 012°08'0 0.0
2016-Jul-01 12:29N 54°09' E 012°08'0 0.0
2016-Jul-01 11:32N 54°09' E 012°08'0 0.0
2016-Jul-01 10:26N 54°09' E 012°08'0 0.0
2016-Jul-01 09:14N 54°09' E 012°08'0 0.0
2016-Jul-01 08:14N 54°09' E 012°08'0 0.0
2016-Jul-01 07:05N 54°09' E 012°08'0 0.0
2016-Jul-01 06:32N 54°09' E 012°08'0 0.0
2016-Jul-01 04:32N 54°09' E 012°08'0 0.0
2016-Jul-01 03:32N 54°09' E 012°08'0 0.0
2016-Jul-01 02:11N 54°09' E 012°08'0 0.0
2016-Jul-01 01:29N 54°09' E 012°08'1 1.3
2016-Jul-01 00:33N 54°10' E 012°06'1010.2
2016-Jun-30 23:33N 54°19' E 011°59'8 8.0
2016-Jun-30 22:34N 54°26' E 012°07'1312.3
2016-Jun-30 21:32N 54°37' E 012°17'5612.6
2016-Jun-30 17:06N 54°59' E 013°45'712.2
2016-Jun-30 16:33N 55°02' E 013°56'1212.2
2016-Jun-30 15:33N 55°04' E 014°17'1212.5
2016-Jun-30 14:33N 55°05' E 014°39'2 1.7
2016-Jun-30 13:31N 55°06' E 014°42'0 0.0
2016-Jun-30 12:31N 55°06' E 014°42'0 0.0
2016-Jun-30 11:31N 55°06' E 014°42'0 0.0
2016-Jun-30 10:31N 55°06' E 014°42'0 0.0
2016-Jun-30 09:31N 55°06' E 014°42'0 0.0
2016-Jun-30 08:31N 55°06' E 014°42'0 0.0
2016-Jun-30 07:31N 55°06' E 014°42'0 0.0
2016-Jun-30 06:33N 55°06' E 014°42'7 7.3
2016-Jun-30 05:33N 55°06' E 014°29'1312.5
2016-Jun-30 04:33N 55°09' E 014°08'1212.3
2016-Jun-30 03:33N 55°10' E 013°46'1412.4
2016-Jun-30 02:27N 55°11' E 013°22'1112.7
2016-Jun-30 01:33N 55°12' E 013°02'1312.9
2016-Jun-30 00:33N 55°17' E 012°42'1010.1
2016-Jun-29 23:33N 55°27' E 012°40'10 9.6
2016-Jun-29 22:33N 55°37' E 012°42'5 4.8
2016-Jun-29 21:31N 55°41' E 012°38'0 0.0
2016-Jun-29 20:31N 55°41' E 012°38'0 0.0
2016-Jun-29 19:32N 55°41' E 012°38'0 0.0
2016-Jun-29 18:31N 55°41' E 012°38'0 0.0
2016-Jun-29 17:32N 55°41' E 012°38'0 0.0
2016-Jun-29 16:31N 55°41' E 012°38'0 0.0
2016-Jun-29 15:31N 55°41' E 012°38'0 0.0
2016-Jun-29 14:32N 55°41' E 012°38'0 0.0
2016-Jun-29 13:32N 55°41' E 012°38'0 0.0
2016-Jun-29 12:31N 55°41' E 012°38'0 0.0
2016-Jun-29 11:32N 55°41' E 012°38'7 7.5
2016-Jun-29 10:33N 55°48' E 012°42'10 9.9
2016-Jun-29 09:33N 55°58' E 012°40'9 9.0
2016-Jun-29 08:34N 56°06' E 012°33'1110.6
2016-Jun-29 07:34N 56°12' E 012°17'1110.9
2016-Jun-29 06:33N 56°10' E 011°58'30 9.9
2016-Jun-29 03:32N 56°02' E 011°06'1211.9
2016-Jun-29 02:32N 55°52' E 010°53'  
2016-Jun-25 17:32N 55°40' E 010°59'0 0.0
2016-Jun-25 16:32N 55°40' E 010°59'0 0.0
2016-Jun-25 15:34N 55°40' E 010°59'14 0.8
2016-Jun-24 21:33N 55°54' E 010°55'1311.2
2016-Jun-24 20:22N 55°58' E 011°18'15 1.5
2016-Jun-24 10:20N 56°03' E 010°53'1013.0
2016-Jun-24 09:34N 56°04' E 010°35'1212.2
2016-Jun-24 08:33N 56°10' E 010°15'1 0.6
2016-Jun-24 07:31N 56°09' E 010°14'0 0.0
2016-Jun-24 04:31N 56°09' E 010°14'0 0.0
2016-Jun-24 03:31N 56°09' E 010°14'0 0.0
2016-Jun-24 02:25N 56°09' E 010°14'0 0.0
2016-Jun-24 01:28N 56°09' E 010°14'0 0.0
2016-Jun-24 00:31N 56°09' E 010°14'0 0.0
2016-Jun-23 23:33N 56°09' E 010°14'2 1.7
2016-Jun-23 22:34N 56°09' E 010°17'1211.8
2016-Jun-23 21:34N 56°04' E 010°36'10 9.6
2016-Jun-23 20:33N 56°12' E 010°47'1211.5
2016-Jun-23 19:32N 56°20' E 011°01'2311.5
2016-Jun-23 17:30N 56°36' E 011°32'1212.3
2016-Jun-23 16:34N 56°44' E 011°48'1111.0
2016-Jun-23 15:33N 56°55' E 011°46'1212.1
2016-Jun-23 14:34N 57°06' E 011°39'1212.2
2016-Jun-23 13:33N 57°18' E 011°31'1212.2
2016-Jun-23 12:33N 57°29' E 011°23'1212.3
2016-Jun-23 11:33N 57°41' E 011°16'1212.4
2016-Jun-23 10:33N 57°52' E 011°08'1212.1
2016-Jun-23 09:33N 58°04' E 010°59'1212.2
2016-Jun-23 08:34N 58°15' E 010°51'1212.0
2016-Jun-23 07:34N 58°26' E 010°43'2311.6
2016-Jun-23 05:33N 58°49' E 010°37'1211.9
2016-Jun-23 04:34N 59°01' E 010°35'1111.2
2016-Jun-23 03:33N 59°12' E 010°36'8 7.8
2016-Jun-23 02:33N 59°20' E 010°31'0 0.0
2016-Jun-23 01:32N 59°20' E 010°31'0 0.0
2016-Jun-23 00:32N 59°20' E 010°31'0 0.0
2016-Jun-22 23:32N 59°20' E 010°31'0 0.0
2016-Jun-22 22:32N 59°20' E 010°31'0 0.0
2016-Jun-22 21:32N 59°20' E 010°31'0 0.0
2016-Jun-22 20:32N 59°20' E 010°31'0 0.0
2016-Jun-22 19:32N 59°20' E 010°31'0 0.0
2016-Jun-22 18:32N 59°20' E 010°31'0 0.0
2016-Jun-22 17:33N 59°20' E 010°31'1 0.8
2016-Jun-22 16:33N 59°20' E 010°31'0 0.0
2016-Jun-22 15:33N 59°20' E 010°31'0 0.0
2016-Jun-22 14:33N 59°20' E 010°31'0 0.0
2016-Jun-22 13:33N 59°20' E 010°31'0 0.0
2016-Jun-22 12:33N 59°20' E 010°31'0 0.0
2016-Jun-22 11:33N 59°20' E 010°31'0 0.1
2016-Jun-22 10:33N 59°20' E 010°30'7 6.6
2016-Jun-22 09:33N 59°14' E 010°35'1211.7
2016-Jun-22 08:33N 59°02' E 010°34'1212.1
2016-Jun-22 07:33N 58°52' E 010°23'1313.0
2016-Jun-22 06:33N 58°42' E 010°06'1313.3
2016-Jun-22 05:33N 58°32' E 009°49'1313.1
2016-Jun-22 04:33N 58°22' E 009°33'1312.7
2016-Jun-22 03:33N 58°13' E 009°17'1412.6
2016-Jun-22 02:28N 58°03' E 008°59'1112.1
2016-Jun-22 01:33N 57°56' E 008°43'3812.2
2016-Jun-21 22:26N 57°42' E 007°37'1011.3
2016-Jun-21 21:33N 57°42' E 007°18'1212.1
2016-Jun-21 20:33N 57°43' E 006°55'1312.7
2016-Jun-21 19:31N 57°45' E 006°31'1212.8
2016-Jun-21 18:33N 57°53' E 006°13'1312.7
2016-Jun-21 17:33N 58°00' E 005°54'1312.7
2016-Jun-21 16:33N 58°09' E 005°37'1212.3
2016-Jun-21 15:33N 58°17' E 005°19'1010.4
2016-Jun-21 14:33N 58°27' E 005°15'  

Dump ship's entire track history